Loon Lake, Washington
Current Conditions -  °F | °C
As of 8:53 PM on Saturday 25 Oct 2014 (Local Time) from KDEW Reporting Station
Overcast Overcast  
Wind Chill: 55°   Ceiling: 8000
Heat Index: 55°   Visibility: 10mi
Dew Point: 46°   Wind: 10mph
Humidity: 72%   Direction: 150°SSE
Pressure: 29.54"   Gusts: NA
Location:  48.06°N, 117.63°W
Report Text: KDEW 260353Z AUTO 15009KT 10SM BKN080 OVC095 13/08 A2954 RMK AO2 RAB0256E06B27E36 SLP001 P0001 T01280078
Loading
Personal Weather Stations






























Interactive Weather Map
Tropical Storm Tracking
New forecast layout! Learn more

10-Day Weather Forecast

Advertisements
Track Severe Weather on mobile